Terminal Aerodrome Forecast
Issued by NWS Boston, MA

Home | Current Version | Previous Version | Text Only | Print | Product List | Glossary On
Versions: 1 2 3 4 5 6 7 8 9 10 11 12 13 14 15 16 17 18 19 20 21 22 23 24 25 26 27 28 29 30 31 32 33 34 35 36 37 38 39 40 41 42 43 44 45 46 47 48 49 50
000
FTUS41 KBOX 280151 AAA
TAFBOS
TAF AMD
KBOS 280151Z 2802/2906 20008KT P6SM SCT100
     FM281400 23007KT P6SM BKN150
     FM281800 19008KT P6SM VCSH BKN140
     FM282100 15009KT P6SM VCSH BKN050
     FM290000 20008KT P6SM BKN050
     FM290200 21007KT P6SM SCT050=

USA.gov is the U.S. government's official web portal to all federal, state and local government web resources and services.